sensor_id;sensor_type;location;lat;lon;timestamp;P1;durP1;ratioP1;P2;durP2;ratioP2
52468;SDS011;38381;53.688;10.776;2024-01-15T00:04:00;6.78;;;3.75;;
52468;SDS011;38381;53.688;10.776;2024-01-15T00:09:00;4.38;;;3.50;;
52468;SDS011;38381;53.688;10.776;2024-01-15T00:14:01;5.03;;;3.20;;
52468;SDS011;38381;53.688;10.776;2024-01-15T00:19:01;5.70;;;3.37;;
52468;SDS011;38381;53.688;10.776;2024-01-15T00:24:01;4.80;;;3.00;;
52468;SDS011;38381;53.688;10.776;2024-01-15T00:29:02;5.95;;;3.85;;
52468;SDS011;38381;53.688;10.776;2024-01-15T00:34:03;7.10;;;3.67;;
52468;SDS011;38381;53.688;10.776;2024-01-15T00:39:03;7.53;;;3.72;;
52468;SDS011;38381;53.688;10.776;2024-01-15T00:44:05;4.22;;;2.92;;
52468;SDS011;38381;53.688;10.776;2024-01-15T00:49:05;7.13;;;4.72;;
52468;SDS011;38381;53.688;10.776;2024-01-15T00:54:06;4.93;;;3.63;;
52468;SDS011;38381;53.688;10.776;2024-01-15T00:59:06;9.27;;;3.17;;
52468;SDS011;38381;53.688;10.776;2024-01-15T01:04:08;6.43;;;3.55;;
52468;SDS011;38381;53.688;10.776;2024-01-15T01:09:11;9.52;;;3.50;;
52468;SDS011;38381;53.688;10.776;2024-01-15T01:14:12;3.65;;;3.35;;
52468;SDS011;38381;53.688;10.776;2024-01-15T01:19:12;12.88;;;3.83;;
52468;SDS011;38381;53.688;10.776;2024-01-15T01:24:13;9.15;;;4.15;;
52468;SDS011;38381;53.688;10.776;2024-01-15T01:29:13;4.90;;;3.60;;
52468;SDS011;38381;53.688;10.776;2024-01-15T01:34:14;4.60;;;3.83;;
52468;SDS011;38381;53.688;10.776;2024-01-15T01:39:15;8.93;;;4.97;;
52468;SDS011;38381;53.688;10.776;2024-01-15T01:44:16;5.47;;;3.40;;
52468;SDS011;38381;53.688;10.776;2024-01-15T01:49:16;6.90;;;2.95;;
52468;SDS011;38381;53.688;10.776;2024-01-15T01:54:17;8.40;;;4.97;;
52468;SDS011;38381;53.688;10.776;2024-01-15T01:59:19;6.45;;;4.10;;
52468;SDS011;38381;53.688;10.776;2024-01-15T02:04:21;8.20;;;3.65;;
52468;SDS011;38381;53.688;10.776;2024-01-15T02:09:24;6.00;;;3.25;;
52468;SDS011;38381;53.688;10.776;2024-01-15T02:14:25;5.38;;;4.00;;
52468;SDS011;38381;53.688;10.776;2024-01-15T02:19:25;9.05;;;3.78;;
52468;SDS011;38381;53.688;10.776;2024-01-15T02:24:25;6.97;;;4.05;;
52468;SDS011;38381;53.688;10.776;2024-01-15T02:29:26;5.80;;;3.40;;
52468;SDS011;38381;53.688;10.776;2024-01-15T02:34:26;7.13;;;3.05;;
52468;SDS011;38381;53.688;10.776;2024-01-15T02:39:32;5.75;;;3.65;;
52468;SDS011;38381;53.688;10.776;2024-01-15T02:44:32;4.82;;;2.80;;
52468;SDS011;38381;53.688;10.776;2024-01-15T02:49:32;11.82;;;3.88;;
52468;SDS011;38381;53.688;10.776;2024-01-15T02:54:33;5.57;;;2.88;;
52468;SDS011;38381;53.688;10.776;2024-01-15T02:59:33;2.53;;;2.33;;
52468;SDS011;38381;53.688;10.776;2024-01-15T03:04:34;6.25;;;2.80;;
52468;SDS011;38381;53.688;10.776;2024-01-15T03:09:34;6.32;;;2.63;;
52468;SDS011;38381;53.688;10.776;2024-01-15T03:14:35;3.07;;;2.80;;
52468;SDS011;38381;53.688;10.776;2024-01-15T03:19:35;6.15;;;3.92;;
52468;SDS011;38381;53.688;10.776;2024-01-15T03:24:36;5.22;;;2.72;;
52468;SDS011;38381;53.688;10.776;2024-01-15T03:29:36;5.80;;;3.03;;
52468;SDS011;38381;53.688;10.776;2024-01-15T03:34:37;10.40;;;2.80;;
52468;SDS011;38381;53.688;10.776;2024-01-15T03:39:37;7.40;;;3.15;;
52468;SDS011;38381;53.688;10.776;2024-01-15T03:44:37;5.55;;;2.78;;
52468;SDS011;38381;53.688;10.776;2024-01-15T03:49:38;5.38;;;2.95;;
52468;SDS011;38381;53.688;10.776;2024-01-15T03:54:38;7.27;;;2.90;;
52468;SDS011;38381;53.688;10.776;2024-01-15T03:59:40;3.10;;;2.03;;
52468;SDS011;38381;53.688;10.776;2024-01-15T04:04:42;4.05;;;2.65;;
52468;SDS011;38381;53.688;10.776;2024-01-15T04:09:43;4.57;;;2.78;;
52468;SDS011;38381;53.688;10.776;2024-01-15T04:14:44;5.47;;;2.72;;
52468;SDS011;38381;53.688;10.776;2024-01-15T04:19:44;6.40;;;2.80;;
52468;SDS011;38381;53.688;10.776;2024-01-15T04:24:45;11.85;;;3.75;;
52468;SDS011;38381;53.688;10.776;2024-01-15T04:29:45;13.63;;;5.20;;
52468;SDS011;38381;53.688;10.776;2024-01-15T04:34:45;8.00;;;2.97;;
52468;SDS011;38381;53.688;10.776;2024-01-15T04:39:46;7.13;;;3.72;;
52468;SDS011;38381;53.688;10.776;2024-01-15T04:44:46;15.32;;;4.68;;
52468;SDS011;38381;53.688;10.776;2024-01-15T04:49:47;6.20;;;2.90;;
52468;SDS011;38381;53.688;10.776;2024-01-15T04:54:49;7.83;;;3.20;;
52468;SDS011;38381;53.688;10.776;2024-01-15T04:59:50;10.82;;;4.30;;
52468;SDS011;38381;53.688;10.776;2024-01-15T05:04:50;10.48;;;3.08;;
52468;SDS011;38381;53.688;10.776;2024-01-15T05:09:50;12.80;;;3.90;;
52468;SDS011;38381;53.688;10.776;2024-01-15T05:14:51;11.85;;;4.15;;
52468;SDS011;38381;53.688;10.776;2024-01-15T05:19:51;12.00;;;4.77;;
52468;SDS011;38381;53.688;10.776;2024-01-15T05:24:51;10.93;;;3.75;;
52468;SDS011;38381;53.688;10.776;2024-01-15T05:29:52;13.90;;;4.57;;
52468;SDS011;38381;53.688;10.776;2024-01-15T05:34:53;19.05;;;5.53;;
52468;SDS011;38381;53.688;10.776;2024-01-15T05:39:53;5.27;;;3.67;;
52468;SDS011;38381;53.688;10.776;2024-01-15T05:44:53;9.57;;;3.97;;
52468;SDS011;38381;53.688;10.776;2024-01-15T05:49:54;6.93;;;4.55;;
52468;SDS011;38381;53.688;10.776;2024-01-15T05:54:56;17.25;;;6.45;;
52468;SDS011;38381;53.688;10.776;2024-01-15T05:59:56;11.15;;;4.65;;
52468;SDS011;38381;53.688;10.776;2024-01-15T06:04:57;12.18;;;4.82;;
52468;SDS011;38381;53.688;10.776;2024-01-15T06:09:57;14.73;;;4.75;;
52468;SDS011;38381;53.688;10.776;2024-01-15T06:14:58;11.05;;;5.35;;
52468;SDS011;38381;53.688;10.776;2024-01-15T06:19:58;12.03;;;5.50;;
52468;SDS011;38381;53.688;10.776;2024-01-15T06:24:59;13.15;;;5.93;;
52468;SDS011;38381;53.688;10.776;2024-01-15T06:29:59;14.27;;;4.25;;
52468;SDS011;38381;53.688;10.776;2024-01-15T06:35:00;11.25;;;5.32;;
52468;SDS011;38381;53.688;10.776;2024-01-15T06:40:00;16.95;;;5.13;;
52468;SDS011;38381;53.688;10.776;2024-01-15T06:45:00;15.10;;;4.78;;
52468;SDS011;38381;53.688;10.776;2024-01-15T06:50:01;10.65;;;4.20;;
52468;SDS011;38381;53.688;10.776;2024-01-15T06:55:01;10.18;;;4.78;;
52468;SDS011;38381;53.688;10.776;2024-01-15T07:00:01;15.30;;;4.90;;
52468;SDS011;38381;53.688;10.776;2024-01-15T07:05:05;12.20;;;5.75;;
52468;SDS011;38381;53.688;10.776;2024-01-15T07:10:05;11.65;;;4.60;;
52468;SDS011;38381;53.688;10.776;2024-01-15T07:15:06;12.30;;;5.28;;
52468;SDS011;38381;53.688;10.776;2024-01-15T07:20:08;13.68;;;4.60;;
52468;SDS011;38381;53.688;10.776;2024-01-15T07:25:09;12.05;;;5.22;;
52468;SDS011;38381;53.688;10.776;2024-01-15T07:30:10;8.85;;;4.28;;
52468;SDS011;38381;53.688;10.776;2024-01-15T07:35:11;9.70;;;3.50;;
52468;SDS011;38381;53.688;10.776;2024-01-15T07:40:12;8.57;;;3.95;;
52468;SDS011;38381;53.688;10.776;2024-01-15T07:45:12;14.73;;;4.43;;
52468;SDS011;38381;53.688;10.776;2024-01-15T07:50:13;12.93;;;4.50;;
52468;SDS011;38381;53.688;10.776;2024-01-15T07:55:13;9.52;;;4.18;;
52468;SDS011;38381;53.688;10.776;2024-01-15T08:00:14;12.27;;;4.07;;
52468;SDS011;38381;53.688;10.776;2024-01-15T08:05:14;12.48;;;3.67;;
52468;SDS011;38381;53.688;10.776;2024-01-15T08:10:15;6.07;;;3.00;;
52468;SDS011;38381;53.688;10.776;2024-01-15T08:15:15;11.02;;;4.38;;
52468;SDS011;38381;53.688;10.776;2024-01-15T08:20:17;6.90;;;3.93;;
52468;SDS011;38381;53.688;10.776;2024-01-15T08:25:17;8.97;;;3.50;;
52468;SDS011;38381;53.688;10.776;2024-01-15T08:30:18;12.90;;;4.15;;
52468;SDS011;38381;53.688;10.776;2024-01-15T08:35:18;10.02;;;4.13;;
52468;SDS011;38381;53.688;10.776;2024-01-15T08:40:22;6.35;;;3.83;;
52468;SDS011;38381;53.688;10.776;2024-01-15T08:45:23;5.77;;;3.17;;
52468;SDS011;38381;53.688;10.776;2024-01-15T08:50:23;6.70;;;3.20;;
52468;SDS011;38381;53.688;10.776;2024-01-15T08:55:23;5.70;;;3.83;;
52468;SDS011;38381;53.688;10.776;2024-01-15T09:00:24;10.10;;;3.80;;
52468;SDS011;38381;53.688;10.776;2024-01-15T09:05:24;7.53;;;3.85;;
52468;SDS011;38381;53.688;10.776;2024-01-15T09:10:24;7.93;;;3.40;;
52468;SDS011;38381;53.688;10.776;2024-01-15T09:15:25;8.15;;;2.88;;
52468;SDS011;38381;53.688;10.776;2024-01-15T09:20:25;10.32;;;3.63;;
52468;SDS011;38381;53.688;10.776;2024-01-15T09:25:27;6.90;;;3.13;;
52468;SDS011;38381;53.688;10.776;2024-01-15T09:30:28;4.00;;;2.50;;
52468;SDS011;38381;53.688;10.776;2024-01-15T09:35:28;8.20;;;2.73;;
52468;SDS011;38381;53.688;10.776;2024-01-15T09:40:30;11.20;;;2.83;;
52468;SDS011;38381;53.688;10.776;2024-01-15T09:45:33;10.63;;;4.28;;
52468;SDS011;38381;53.688;10.776;2024-01-15T09:50:33;8.73;;;3.55;;
52468;SDS011;38381;53.688;10.776;2024-01-15T09:55:34;9.77;;;3.53;;
52468;SDS011;38381;53.688;10.776;2024-01-15T10:00:36;11.10;;;3.88;;
52468;SDS011;38381;53.688;10.776;2024-01-15T10:05:41;8.05;;;3.70;;
52468;SDS011;38381;53.688;10.776;2024-01-15T10:10:43;11.10;;;3.55;;
52468;SDS011;38381;53.688;10.776;2024-01-15T10:15:47;8.88;;;2.90;;
52468;SDS011;38381;53.688;10.776;2024-01-15T10:20:47;7.88;;;2.92;;
52468;SDS011;38381;53.688;10.776;2024-01-15T10:25:48;6.63;;;2.60;;
52468;SDS011;38381;53.688;10.776;2024-01-15T10:30:51;10.30;;;3.17;;
52468;SDS011;38381;53.688;10.776;2024-01-15T10:35:58;9.48;;;2.85;;
52468;SDS011;38381;53.688;10.776;2024-01-15T10:41:00;6.13;;;2.50;;
52468;SDS011;38381;53.688;10.776;2024-01-15T10:46:00;4.73;;;2.80;;
52468;SDS011;38381;53.688;10.776;2024-01-15T10:51:02;6.00;;;3.03;;
52468;SDS011;38381;53.688;10.776;2024-01-15T10:56:10;6.07;;;3.15;;
52468;SDS011;38381;53.688;10.776;2024-01-15T11:01:13;3.88;;;2.72;;
52468;SDS011;38381;53.688;10.776;2024-01-15T11:06:17;3.55;;;2.53;;
52468;SDS011;38381;53.688;10.776;2024-01-15T11:11:21;6.72;;;2.28;;
52468;SDS011;38381;53.688;10.776;2024-01-15T11:16:22;4.18;;;1.85;;
52468;SDS011;38381;53.688;10.776;2024-01-15T11:21:23;2.10;;;1.90;;
52468;SDS011;38381;53.688;10.776;2024-01-15T11:41:45;4.07;;;2.63;;
52468;SDS011;38381;53.688;10.776;2024-01-15T11:47:08;4.22;;;1.98;;
52468;SDS011;38381;53.688;10.776;2024-01-15T11:52:12;3.28;;;2.67;;
52468;SDS011;38381;53.688;10.776;2024-01-15T11:57:19;2.25;;;2.05;;
52468;SDS011;38381;53.688;10.776;2024-01-15T12:02:26;5.60;;;2.38;;
52468;SDS011;38381;53.688;10.776;2024-01-15T12:07:26;3.05;;;1.80;;
52468;SDS011;38381;53.688;10.776;2024-01-15T12:17:56;2.45;;;2.13;;
52468;SDS011;38381;53.688;10.776;2024-01-15T12:22:58;2.55;;;2.30;;
52468;SDS011;38381;53.688;10.776;2024-01-15T12:27:59;3.28;;;1.85;;
52468;SDS011;38381;53.688;10.776;2024-01-15T12:33:01;2.10;;;1.90;;
52468;SDS011;38381;53.688;10.776;2024-01-15T12:38:03;2.33;;;2.05;;
52468;SDS011;38381;53.688;10.776;2024-01-15T12:43:05;2.15;;;1.95;;
52468;SDS011;38381;53.688;10.776;2024-01-15T12:48:06;8.00;;;2.95;;
52468;SDS011;38381;53.688;10.776;2024-01-15T12:53:07;2.58;;;2.20;;
52468;SDS011;38381;53.688;10.776;2024-01-15T12:58:08;4.03;;;2.10;;
52468;SDS011;38381;53.688;10.776;2024-01-15T13:03:09;3.17;;;1.90;;
52468;SDS011;38381;53.688;10.776;2024-01-15T13:08:09;3.85;;;2.45;;
52468;SDS011;38381;53.688;10.776;2024-01-15T13:13:10;1.70;;;1.60;;
52468;SDS011;38381;53.688;10.776;2024-01-15T13:18:10;2.10;;;1.83;;
52468;SDS011;38381;53.688;10.776;2024-01-15T13:23:11;4.70;;;2.13;;
52468;SDS011;38381;53.688;10.776;2024-01-15T13:28:11;1.98;;;1.80;;
52468;SDS011;38381;53.688;10.776;2024-01-15T13:33:13;2.42;;;2.22;;
52468;SDS011;38381;53.688;10.776;2024-01-15T13:38:13;2.20;;;2.00;;
52468;SDS011;38381;53.688;10.776;2024-01-15T13:43:14;3.25;;;1.98;;
52468;SDS011;38381;53.688;10.776;2024-01-15T13:48:14;3.55;;;2.33;;
52468;SDS011;38381;53.688;10.776;2024-01-15T13:53:14;2.83;;;1.85;;
52468;SDS011;38381;53.688;10.776;2024-01-15T13:58:15;2.80;;;2.10;;
52468;SDS011;38381;53.688;10.776;2024-01-15T14:03:16;2.83;;;2.63;;
52468;SDS011;38381;53.688;10.776;2024-01-15T14:08:16;6.07;;;4.00;;
52468;SDS011;38381;53.688;10.776;2024-01-15T14:13:17;2.50;;;1.80;;
52468;SDS011;38381;53.688;10.776;2024-01-15T14:18:20;2.25;;;2.05;;
52468;SDS011;38381;53.688;10.776;2024-01-15T14:23:20;2.92;;;1.98;;
52468;SDS011;38381;53.688;10.776;2024-01-15T14:28:21;3.58;;;2.25;;
52468;SDS011;38381;53.688;10.776;2024-01-15T14:33:23;2.43;;;2.23;;
52468;SDS011;38381;53.688;10.776;2024-01-15T14:38:23;2.38;;;2.00;;
52468;SDS011;38381;53.688;10.776;2024-01-15T14:43:24;3.60;;;2.53;;
52468;SDS011;38381;53.688;10.776;2024-01-15T14:48:24;5.13;;;2.60;;
52468;SDS011;38381;53.688;10.776;2024-01-15T14:53:25;4.70;;;2.33;;
52468;SDS011;38381;53.688;10.776;2024-01-15T14:58:25;3.15;;;2.28;;
52468;SDS011;38381;53.688;10.776;2024-01-15T15:03:25;5.97;;;2.35;;
52468;SDS011;38381;53.688;10.776;2024-01-15T15:08:26;5.20;;;2.90;;
52468;SDS011;38381;53.688;10.776;2024-01-15T15:13:27;2.50;;;2.10;;
52468;SDS011;38381;53.688;10.776;2024-01-15T15:18:27;3.67;;;2.80;;
52468;SDS011;38381;53.688;10.776;2024-01-15T15:23:30;5.28;;;2.88;;
52468;SDS011;38381;53.688;10.776;2024-01-15T15:28:30;7.32;;;3.70;;
52468;SDS011;38381;53.688;10.776;2024-01-15T15:33:30;3.33;;;3.03;;
52468;SDS011;38381;53.688;10.776;2024-01-15T15:38:31;6.07;;;4.33;;
52468;SDS011;38381;53.688;10.776;2024-01-15T15:43:32;6.93;;;4.25;;
52468;SDS011;38381;53.688;10.776;2024-01-15T15:48:32;5.70;;;4.07;;
52468;SDS011;38381;53.688;10.776;2024-01-15T15:53:32;5.57;;;3.20;;
52468;SDS011;38381;53.688;10.776;2024-01-15T15:58:33;8.27;;;5.28;;
52468;SDS011;38381;53.688;10.776;2024-01-15T16:03:33;13.90;;;7.82;;
52468;SDS011;38381;53.688;10.776;2024-01-15T16:08:34;7.55;;;5.63;;
52468;SDS011;38381;53.688;10.776;2024-01-15T16:13:35;4.22;;;3.83;;
52468;SDS011;38381;53.688;10.776;2024-01-15T16:18:36;3.30;;;3.00;;
52468;SDS011;38381;53.688;10.776;2024-01-15T16:23:36;3.42;;;3.10;;
52468;SDS011;38381;53.688;10.776;2024-01-15T16:28:37;5.13;;;4.63;;
52468;SDS011;38381;53.688;10.776;2024-01-15T16:33:37;4.82;;;3.55;;
52468;SDS011;38381;53.688;10.776;2024-01-15T16:38:37;4.30;;;3.53;;
52468;SDS011;38381;53.688;10.776;2024-01-15T16:43:38;6.88;;;3.50;;
52468;SDS011;38381;53.688;10.776;2024-01-15T16:48:38;4.27;;;3.60;;
52468;SDS011;38381;53.688;10.776;2024-01-15T16:53:39;4.28;;;3.58;;
52468;SDS011;38381;53.688;10.776;2024-01-15T16:58:39;3.95;;;2.92;;
52468;SDS011;38381;53.688;10.776;2024-01-15T17:03:40;4.95;;;4.22;;
52468;SDS011;38381;53.688;10.776;2024-01-15T17:08:40;6.43;;;4.07;;
52468;SDS011;38381;53.688;10.776;2024-01-15T17:13:41;8.27;;;3.85;;
52468;SDS011;38381;53.688;10.776;2024-01-15T17:18:43;6.22;;;4.10;;
52468;SDS011;38381;53.688;10.776;2024-01-15T17:23:44;9.13;;;4.73;;
52468;SDS011;38381;53.688;10.776;2024-01-15T17:28:44;5.00;;;3.13;;
52468;SDS011;38381;53.688;10.776;2024-01-15T17:33:45;4.50;;;2.80;;
52468;SDS011;38381;53.688;10.776;2024-01-15T17:38:45;5.72;;;4.20;;
52468;SDS011;38381;53.688;10.776;2024-01-15T17:43:46;4.82;;;3.65;;
52468;SDS011;38381;53.688;10.776;2024-01-15T17:48:47;5.10;;;2.92;;
52468;SDS011;38381;53.688;10.776;2024-01-15T17:53:48;3.38;;;3.08;;
52468;SDS011;38381;53.688;10.776;2024-01-15T17:58:48;3.53;;;3.22;;
52468;SDS011;38381;53.688;10.776;2024-01-15T18:03:50;9.23;;;4.18;;
52468;SDS011;38381;53.688;10.776;2024-01-15T18:08:51;9.80;;;7.32;;
52468;SDS011;38381;53.688;10.776;2024-01-15T18:13:51;13.43;;;9.38;;
52468;SDS011;38381;53.688;10.776;2024-01-15T18:18:52;13.00;;;9.38;;
52468;SDS011;38381;53.688;10.776;2024-01-15T18:23:52;9.02;;;5.35;;
52468;SDS011;38381;53.688;10.776;2024-01-15T18:28:52;4.43;;;3.88;;
52468;SDS011;38381;53.688;10.776;2024-01-15T18:33:53;25.42;;;11.18;;
52468;SDS011;38381;53.688;10.776;2024-01-15T18:38:53;23.15;;;14.50;;
52468;SDS011;38381;53.688;10.776;2024-01-15T18:43:54;8.38;;;5.20;;
52468;SDS011;38381;53.688;10.776;2024-01-15T18:48:55;4.60;;;4.15;;
52468;SDS011;38381;53.688;10.776;2024-01-15T18:53:56;5.00;;;4.50;;
52468;SDS011;38381;53.688;10.776;2024-01-15T18:58:59;7.22;;;4.13;;
52468;SDS011;38381;53.688;10.776;2024-01-15T19:03:59;4.07;;;3.63;;
52468;SDS011;38381;53.688;10.776;2024-01-15T19:09:00;4.30;;;3.55;;
52468;SDS011;38381;53.688;10.776;2024-01-15T19:14:00;6.72;;;4.10;;
52468;SDS011;38381;53.688;10.776;2024-01-15T19:19:00;3.60;;;3.30;;
52468;SDS011;38381;53.688;10.776;2024-01-15T19:24:01;4.53;;;3.53;;
52468;SDS011;38381;53.688;10.776;2024-01-15T19:29:02;12.75;;;7.35;;
52468;SDS011;38381;53.688;10.776;2024-01-15T19:34:03;8.00;;;6.55;;
52468;SDS011;38381;53.688;10.776;2024-01-15T19:39:06;6.60;;;4.60;;
52468;SDS011;38381;53.688;10.776;2024-01-15T19:44:12;5.72;;;5.07;;
52468;SDS011;38381;53.688;10.776;2024-01-15T19:49:15;6.45;;;4.28;;
52468;SDS011;38381;53.688;10.776;2024-01-15T19:54:15;4.45;;;3.97;;
52468;SDS011;38381;53.688;10.776;2024-01-15T19:59:18;4.50;;;4.10;;
52468;SDS011;38381;53.688;10.776;2024-01-15T20:04:18;5.70;;;3.70;;
52468;SDS011;38381;53.688;10.776;2024-01-15T20:09:18;5.82;;;3.90;;
52468;SDS011;38381;53.688;10.776;2024-01-15T20:14:19;5.05;;;3.75;;
52468;SDS011;38381;53.688;10.776;2024-01-15T20:19:20;8.05;;;6.65;;
52468;SDS011;38381;53.688;10.776;2024-01-15T20:24:20;6.03;;;5.43;;
52468;SDS011;38381;53.688;10.776;2024-01-15T20:29:24;11.35;;;6.15;;
52468;SDS011;38381;53.688;10.776;2024-01-15T20:34:24;5.82;;;3.45;;
52468;SDS011;38381;53.688;10.776;2024-01-15T20:39:25;4.85;;;3.67;;
52468;SDS011;38381;53.688;10.776;2024-01-15T20:44:25;4.72;;;3.28;;
52468;SDS011;38381;53.688;10.776;2024-01-15T20:49:26;3.70;;;3.07;;
52468;SDS011;38381;53.688;10.776;2024-01-15T20:54:27;4.28;;;2.95;;
52468;SDS011;38381;53.688;10.776;2024-01-15T20:59:27;4.10;;;3.40;;
52468;SDS011;38381;53.688;10.776;2024-01-15T21:04:28;3.88;;;3.55;;
52468;SDS011;38381;53.688;10.776;2024-01-15T21:09:28;4.97;;;3.33;;
52468;SDS011;38381;53.688;10.776;2024-01-15T21:14:29;3.50;;;3.20;;
52468;SDS011;38381;53.688;10.776;2024-01-15T21:19:29;3.60;;;2.80;;
52468;SDS011;38381;53.688;10.776;2024-01-15T21:24:30;7.13;;;4.15;;
52468;SDS011;38381;53.688;10.776;2024-01-15T21:29:31;6.03;;;5.22;;
52468;SDS011;38381;53.688;10.776;2024-01-15T21:34:31;3.20;;;2.93;;
52468;SDS011;38381;53.688;10.776;2024-01-15T21:39:32;5.10;;;3.63;;
52468;SDS011;38381;53.688;10.776;2024-01-15T21:44:32;4.07;;;3.38;;
52468;SDS011;38381;53.688;10.776;2024-01-15T21:49:32;4.65;;;3.92;;
52468;SDS011;38381;53.688;10.776;2024-01-15T21:54:33;2.80;;;2.60;;
52468;SDS011;38381;53.688;10.776;2024-01-15T21:59:33;3.58;;;3.25;;
52468;SDS011;38381;53.688;10.776;2024-01-15T22:04:34;3.00;;;2.80;;
52468;SDS011;38381;53.688;10.776;2024-01-15T22:09:35;3.05;;;2.75;;
52468;SDS011;38381;53.688;10.776;2024-01-15T22:14:36;4.40;;;3.25;;
52468;SDS011;38381;53.688;10.776;2024-01-15T22:19:36;3.53;;;3.22;;
52468;SDS011;38381;53.688;10.776;2024-01-15T22:24:37;5.13;;;2.55;;
52468;SDS011;38381;53.688;10.776;2024-01-15T22:29:38;4.40;;;3.55;;
52468;SDS011;38381;53.688;10.776;2024-01-15T22:34:38;3.53;;;3.22;;
52468;SDS011;38381;53.688;10.776;2024-01-15T22:39:39;3.40;;;3.10;;
52468;SDS011;38381;53.688;10.776;2024-01-15T22:44:39;3.08;;;2.78;;
52468;SDS011;38381;53.688;10.776;2024-01-15T22:49:39;3.05;;;2.80;;
52468;SDS011;38381;53.688;10.776;2024-01-15T22:54:40;3.00;;;2.75;;
52468;SDS011;38381;53.688;10.776;2024-01-15T22:59:40;3.03;;;2.67;;
52468;SDS011;38381;53.688;10.776;2024-01-15T23:04:41;3.08;;;2.70;;
52468;SDS011;38381;53.688;10.776;2024-01-15T23:09:41;3.10;;;2.65;;
52468;SDS011;38381;53.688;10.776;2024-01-15T23:14:42;2.92;;;2.72;;
52468;SDS011;38381;53.688;10.776;2024-01-15T23:19:42;4.57;;;3.03;;
52468;SDS011;38381;53.688;10.776;2024-01-15T23:24:43;3.85;;;2.78;;
52468;SDS011;38381;53.688;10.776;2024-01-15T23:29:43;3.23;;;2.47;;
52468;SDS011;38381;53.688;10.776;2024-01-15T23:34:43;3.75;;;3.25;;
52468;SDS011;38381;53.688;10.776;2024-01-15T23:39:44;2.75;;;2.50;;
52468;SDS011;38381;53.688;10.776;2024-01-15T23:44:44;2.95;;;2.67;;
52468;SDS011;38381;53.688;10.776;2024-01-15T23:49:44;3.40;;;3.10;;
52468;SDS011;38381;53.688;10.776;2024-01-15T23:54:45;3.35;;;2.70;;
52468;SDS011;38381;53.688;10.776;2024-01-15T23:59:45;3.72;;;3.20;;
